createdAt,value
2022-10-11T00:00:11.555Z,101491.94
2022-10-11T00:02:38.158Z,101502.41
2022-10-11T00:05:05.131Z,101479.72
2022-10-11T00:07:32.016Z,101486.69
2022-10-11T00:09:58.659Z,101497.19
2022-10-11T00:12:25.229Z,101490.19
2022-10-11T00:14:52.993Z,101492.81
2022-10-11T00:17:19.641Z,101497.16
2022-10-11T00:19:46.510Z,101476.22
2022-10-11T00:22:13.148Z,101469.25
2022-10-11T00:24:39.770Z,101478.88
2022-10-11T00:27:06.381Z,101477.13
2022-10-11T00:29:33.064Z,101465.78
2022-10-11T00:31:59.775Z,101471.88
2022-10-11T00:34:26.398Z,101466.66
2022-10-11T00:36:54.555Z,101475.34
2022-10-11T00:39:21.154Z,101474.47
2022-10-11T00:41:49.951Z,101476.22
2022-10-11T00:44:20.327Z,101464.84
2022-10-11T00:46:56.013Z,101464.84
2022-10-11T00:49:27.579Z,101467.47
2022-10-11T00:52:29.206Z,101470.06
2022-10-11T00:54:58.478Z,101466.56
2022-10-11T00:57:28.040Z,101463.06
2022-10-11T00:59:56.103Z,101440.34
2022-10-11T01:02:24.749Z,101466.56
2022-10-11T01:05:11.386Z,101469.16
2022-10-11T01:07:40.115Z,101452.56
2022-10-11T01:10:06.877Z,101428.09
2022-10-11T01:12:33.883Z,101467.38
2022-10-11T01:15:06.373Z,101465.63
2022-10-11T01:17:53.178Z,101457.78
2022-10-11T01:20:35.360Z,101459.50
2022-10-11T01:23:07.847Z,101451.66
2022-10-11T01:26:07.931Z,101458.63
2022-10-11T01:29:02.135Z,101455.16
2022-10-11T01:31:45.015Z,101449.03
2022-10-11T01:34:17.167Z,101450.78
2022-10-11T01:37:13.168Z,101445.47
2022-10-11T01:39:59.664Z,101445.47
2022-10-11T01:42:28.220Z,101452.47
2022-10-11T01:44:56.889Z,101446.34
2022-10-11T01:47:24.945Z,101440.25
2022-10-11T01:49:56.617Z,101451.56
2022-10-11T01:52:23.550Z,101462.91
2022-10-11T01:55:09.292Z,101459.38
2022-10-11T01:58:01.404Z,101460.28
2022-10-11T02:00:35.895Z,101468.06
2022-10-11T02:03:25.235Z,101464.59
2022-10-11T02:06:01.367Z,101457.59
2022-10-11T02:08:37.747Z,101459.34
2022-10-11T02:11:22.165Z,101446.22
2022-10-11T02:14:00.385Z,101455.81
2022-10-11T02:16:37.227Z,101463.66
2022-10-11T02:19:06.255Z,101455.81
2022-10-11T02:21:36.311Z,101457.56
2022-10-11T02:24:11.500Z,101454.03
2022-10-11T02:26:42.083Z,101462.78
2022-10-11T02:29:12.155Z,101451.41
2022-10-11T02:31:40.211Z,101457.56
2022-10-11T02:34:15.261Z,101444.41
2022-10-11T02:36:51.930Z,101461.03
2022-10-11T02:39:35.666Z,101454.88
2022-10-11T02:42:06.885Z,101453.09
2022-10-11T02:44:39.837Z,101450.53
2022-10-11T02:47:08.193Z,101456.59
2022-10-11T02:49:35.048Z,101447.88
2022-10-11T02:52:05.045Z,101443.47
2022-10-11T02:54:32.296Z,101442.59
2022-10-11T02:56:58.872Z,101460.03
2022-10-11T02:59:25.474Z,101454.75
2022-10-11T03:01:52.124Z,101440.81
2022-10-11T03:04:18.791Z,101441.69
2022-10-11T03:06:45.386Z,101458.25
2022-10-11T03:09:12.003Z,101454.72
2022-10-11T03:11:38.561Z,101417.19
2022-10-11T03:14:05.150Z,101466.09
2022-10-11T03:16:32.323Z,101456.50
2022-10-11T03:18:58.909Z,101454.72
2022-10-11T03:21:25.518Z,101460.84
2022-10-11T03:23:52.889Z,101458.19
2022-10-11T03:26:19.547Z,101432.88
2022-10-11T03:28:46.186Z,101449.50
2022-10-11T03:31:12.926Z,101455.59
2022-10-11T03:33:39.508Z,101448.63
2022-10-11T03:36:07.019Z,101453.84
2022-10-11T03:38:33.991Z,101452.09
2022-10-11T03:41:02.437Z,101432.03
2022-10-11T03:43:29.075Z,101456.47
2022-10-11T03:45:55.736Z,101437.25
2022-10-11T03:48:22.451Z,101449.53
2022-10-11T03:50:49.604Z,101446.06
2022-10-11T03:53:16.287Z,101446.06
2022-10-11T03:55:42.890Z,101426.84
2022-10-11T03:58:09.575Z,101451.31
2022-10-11T04:00:37.399Z,101434.75
2022-10-11T04:03:04.183Z,101446.09
2022-10-11T04:05:31.408Z,101448.78
2022-10-11T04:07:58.414Z,101437.44
2022-10-11T04:10:25.082Z,101447.94
2022-10-11T04:12:51.655Z,101443.56
2022-10-11T04:15:19.218Z,101438.34
2022-10-11T04:17:45.815Z,101440.13
2022-10-11T04:20:12.494Z,101439.22
2022-10-11T04:22:39.405Z,101443.59
2022-10-11T04:25:07.088Z,101438.38
2022-10-11T04:27:33.797Z,101439.28
2022-10-11T04:30:01.263Z,101441.91
2022-10-11T04:32:27.893Z,101444.53
2022-10-11T04:34:54.499Z,101452.38
2022-10-11T04:37:21.133Z,101441.94
2022-10-11T04:39:50.245Z,101430.63
2022-10-11T04:42:16.954Z,101451.56
2022-10-11T04:44:44.338Z,101458.56
2022-10-11T04:47:11.502Z,101456.84
2022-10-11T04:49:38.218Z,101448.16
2022-10-11T04:52:05.742Z,101449.88
2022-10-11T04:54:32.356Z,101449.91
2022-10-11T04:56:58.975Z,101457.78
2022-10-11T04:59:25.619Z,101456.03
2022-10-11T05:01:52.249Z,101450.81
2022-10-11T05:04:18.814Z,101454.31
2022-10-11T05:06:46.222Z,101456.94
2022-10-11T05:09:13.297Z,101403.72
2022-10-11T05:11:39.875Z,101445.63
2022-10-11T05:14:07.512Z,101446.50
2022-10-11T05:16:34.461Z,101444.78
2022-10-11T05:19:01.068Z,101422.09
2022-10-11T05:21:29.680Z,101443.91
2022-10-11T05:23:57.136Z,101433.47
2022-10-11T05:26:25.916Z,101393.31
2022-10-11T05:28:52.998Z,101425.66
2022-10-11T05:31:20.231Z,101423.88
2022-10-11T05:33:46.936Z,101430.88
2022-10-11T05:36:14.255Z,101417.78
2022-10-11T05:38:41.575Z,101423.03
2022-10-11T05:41:11.576Z,101419.53
2022-10-11T05:43:38.562Z,101420.41
2022-10-11T05:46:05.788Z,101357.59
2022-10-11T05:48:32.807Z,101409.94
2022-10-11T05:51:04.295Z,101399.47
2022-10-11T05:53:31.420Z,101414.31
2022-10-11T05:55:58.735Z,101401.22
2022-10-11T05:58:26.112Z,101402.06
2022-10-11T06:00:52.880Z,101405.53
2022-10-11T06:03:21.102Z,101408.16
2022-10-11T06:05:52.125Z,101397.66
2022-10-11T06:08:21.266Z,101390.66
2022-10-11T06:10:47.824Z,101399.34
2022-10-11T06:13:14.420Z,101394.09
2022-10-11T06:15:40.999Z,101388.81
2022-10-11T06:18:07.710Z,101397.50
2022-10-11T06:20:35.369Z,101395.72
2022-10-11T06:23:01.970Z,101380.88
2022-10-11T06:25:28.626Z,101390.44
2022-10-11T06:27:56.625Z,101391.28
2022-10-11T06:30:23.345Z,101377.31
2022-10-11T06:32:49.899Z,101390.38
2022-10-11T06:35:17.294Z,101372.03
2022-10-11T06:37:43.860Z,101383.28
2022-10-11T06:40:11.980Z,101389.38
2022-10-11T06:42:41.411Z,101351.91
2022-10-11T06:45:08.374Z,101378.81
2022-10-11T06:47:34.931Z,101335.19
2022-10-11T06:50:01.656Z,101375.22
2022-10-11T06:52:28.207Z,101373.38
2022-10-11T06:54:54.765Z,101371.56
2022-10-11T06:57:21.668Z,101373.22
2022-10-11T06:59:48.313Z,101375.78
2022-10-11T07:02:14.943Z,101364.34
2022-10-11T07:04:42.351Z,101350.38
2022-10-11T07:07:08.897Z,101359.91
2022-10-11T07:09:35.545Z,101371.19
2022-10-11T07:12:02.926Z,101361.47
2022-10-11T07:14:29.659Z,101348.19
2022-10-11T07:16:57.455Z,101337.59
2022-10-11T07:19:24.049Z,101312.25
2022-10-11T07:21:50.620Z,101332.16
2022-10-11T07:24:17.287Z,101338.91
2022-10-11T07:26:44.650Z,101345.78
2022-10-11T07:29:11.958Z,101342.25
2022-10-11T07:31:41.228Z,101344.69
2022-10-11T07:34:08.166Z,101321.91
2022-10-11T07:36:35.133Z,101347.94
2022-10-11T07:39:05.076Z,101342.56
2022-10-11T07:41:31.772Z,101311.03
2022-10-11T07:43:58.332Z,101328.94
2022-10-11T07:46:24.989Z,101310.44
2022-10-11T07:48:54.079Z,101331.97
2022-10-11T07:51:22.852Z,101326.63
2022-10-11T07:53:52.304Z,101322.03
2022-10-11T07:56:22.788Z,101314.78
2022-10-11T07:58:51.600Z,101311.09
2022-10-11T08:01:18.937Z,101299.72
2022-10-11T08:03:46.485Z,101310.72
2022-10-11T08:06:15.388Z,101273.06
2022-10-11T08:08:42.301Z,101293.53
2022-10-11T08:11:09.711Z,101295.94
2022-10-11T08:13:36.933Z,101292.16
2022-10-11T08:16:11.827Z,101287.44
2022-10-11T08:18:38.531Z,101288.88
2022-10-11T08:21:10.030Z,101282.50
2022-10-11T08:23:37.643Z,101282.16
2022-10-11T08:26:04.855Z,101282.59
2022-10-11T08:28:32.115Z,101277.88
2022-10-11T08:31:02.110Z,101271.59
2022-10-11T08:33:28.807Z,101279.28
2022-10-11T08:35:57.147Z,101268.41
2022-10-11T08:38:24.847Z,101248.28
2022-10-11T08:40:59.621Z,101255.56
2022-10-11T08:43:47.711Z,101267.34
2022-10-11T08:46:15.673Z,101256.69
2022-10-11T08:48:46.138Z,101257.31
2022-10-11T08:51:24.669Z,101263.94
2022-10-11T08:54:11.001Z,101252.13
2022-10-11T08:56:41.623Z,101258.84
2022-10-11T08:59:20.076Z,101260.91
2022-10-11T09:01:53.300Z,101228.63
2022-10-11T09:04:20.063Z,101238.41
2022-10-11T09:07:05.281Z,101223.00
2022-10-11T09:09:56.288Z,101220.66
2022-10-11T09:12:42.926Z,101228.28
2022-10-11T09:15:27.967Z,101220.41
2022-10-11T09:18:15.267Z,101218.84
2022-10-11T09:20:56.133Z,101217.81
2022-10-11T09:23:59.431Z,101212.16
2022-10-11T09:26:31.312Z,101216.38
2022-10-11T09:29:07.839Z,101210.19
2022-10-11T09:31:34.671Z,101198.81
2022-10-11T09:34:11.950Z,101191.63
2022-10-11T09:37:07.111Z,101190.16
2022-10-11T09:39:41.854Z,101201.91
2022-10-11T09:42:12.194Z,101190.81
2022-10-11T09:44:57.649Z,101201.94
2022-10-11T09:47:29.497Z,101197.63
2022-10-11T09:50:26.303Z,101207.00
2022-10-11T09:52:54.045Z,101206.47
2022-10-11T09:55:34.008Z,101202.94
2022-10-11T09:58:00.794Z,101180.81
2022-10-11T10:00:32.387Z,101184.69
2022-10-11T10:03:02.165Z,101184.75
2022-10-11T10:05:31.877Z,101183.97
2022-10-11T10:08:10.314Z,101187.84
2022-10-11T10:10:40.976Z,101185.97
2022-10-11T10:13:25.764Z,101189.66
2022-10-11T10:15:55.444Z,101177.56
2022-10-11T10:18:37.513Z,101187.75
2022-10-11T10:21:14.579Z,101187.03
2022-10-11T10:23:43.038Z,101183.03
2022-10-11T10:26:14.852Z,101179.22
2022-10-11T10:29:21.946Z,101159.66
2022-10-11T10:32:13.258Z,101160.63
2022-10-11T10:34:38.501Z,101150.50
2022-10-11T10:37:25.360Z,101169.13
2022-10-11T10:40:18.052Z,101165.69
2022-10-11T10:42:44.665Z,101160.13
2022-10-11T10:45:21.238Z,101147.72
2022-10-11T10:48:01.081Z,101148.56
2022-10-11T10:50:49.000Z,101126.25
2022-10-11T10:53:22.434Z,101138.72
2022-10-11T10:55:59.865Z,101139.63
2022-10-11T10:58:51.039Z,101135.44
2022-10-11T11:01:20.457Z,101133.91
2022-10-11T11:03:52.131Z,101129.78
2022-10-11T11:06:36.893Z,101126.28
2022-10-11T11:09:12.031Z,101126.75
2022-10-11T11:11:44.543Z,101126.97
2022-10-11T11:14:33.719Z,101114.56
2022-10-11T11:17:00.237Z,101135.16
2022-10-11T11:19:45.134Z,101122.53
2022-10-11T11:22:14.723Z,101127.06
2022-10-11T11:24:58.077Z,101132.91
2022-10-11T11:27:53.290Z,101124.63
2022-10-11T11:30:42.147Z,101118.41
2022-10-11T11:33:20.818Z,101118.72
2022-10-11T11:35:53.195Z,101111.50
2022-10-11T11:38:34.493Z,101115.38
2022-10-11T11:41:09.260Z,101117.59
2022-10-11T11:44:09.665Z,101105.50
2022-10-11T11:46:44.300Z,101111.88
2022-10-11T11:49:20.881Z,101117.34
2022-10-11T11:51:48.747Z,101106.56
2022-10-11T11:54:15.255Z,101115.59
2022-10-11T11:57:04.148Z,101123.19
2022-10-11T11:59:40.209Z,101111.41
2022-10-11T12:02:39.918Z,101099.94
2022-10-11T12:05:08.355Z,101086.78
2022-10-11T12:07:50.845Z,101101.53
2022-10-11T12:10:29.407Z,101103.75
2022-10-11T12:13:32.250Z,101105.81
2022-10-11T12:16:01.668Z,101105.91
2022-10-11T12:18:31.993Z,101085.53
2022-10-11T12:21:17.056Z,101081.56
2022-10-11T12:23:52.600Z,101095.72
2022-10-11T12:26:28.216Z,101100.47
2022-10-11T12:29:47.265Z,101088.56
2022-10-11T12:32:29.070Z,101099.19
2022-10-11T12:35:34.292Z,101095.78
2022-10-11T12:38:03.977Z,101103.06
2022-10-11T12:40:39.800Z,101083.06
2022-10-11T12:43:26.410Z,101087.63
2022-10-11T12:45:53.945Z,101097.31
2022-10-11T12:48:50.915Z,101076.09
2022-10-11T12:51:42.612Z,101086.59
2022-10-11T12:54:29.933Z,101078.63
2022-10-11T12:57:01.319Z,101083.88
2022-10-11T12:59:31.250Z,101066.72
2022-10-11T13:01:59.920Z,101079.78
2022-10-11T13:04:33.361Z,101072.81
2022-10-11T13:07:11.795Z,101080.63
2022-10-11T13:09:41.588Z,101066.78
2022-10-11T13:12:16.058Z,101079.16
2022-10-11T13:14:45.680Z,101051.13
2022-10-11T13:17:24.835Z,101068.53
2022-10-11T13:20:10.297Z,101072.09
2022-10-11T13:22:39.871Z,101039.44
2022-10-11T13:25:08.485Z,101063.56
2022-10-11T13:27:37.768Z,101056.72
2022-10-11T13:30:11.383Z,101046.28
2022-10-11T13:32:38.054Z,101036.97
2022-10-11T13:35:20.969Z,101062.13
2022-10-11T13:37:50.582Z,101054.50
2022-10-11T13:40:20.810Z,101058.41
2022-10-11T13:42:50.776Z,101056.75
2022-10-11T13:45:20.881Z,101058.34
2022-10-11T13:47:50.001Z,101054.88
2022-10-11T13:50:19.430Z,101059.28
2022-10-11T13:53:01.172Z,101066.31
2022-10-11T13:55:55.090Z,101055.00
2022-10-11T13:58:26.139Z,101054.28
2022-10-11T14:01:27.114Z,101025.72
2022-10-11T14:04:01.688Z,101063.06
2022-10-11T14:06:56.645Z,101051.25
2022-10-11T14:09:36.463Z,101067.91
2022-10-11T14:12:35.726Z,101063.66
2022-10-11T14:15:07.452Z,101044.94
2022-10-11T14:17:45.091Z,101065.22
2022-10-11T14:20:12.702Z,101065.41
2022-10-11T14:22:39.514Z,101066.53
2022-10-11T14:25:06.415Z,101071.81
2022-10-11T14:27:34.790Z,101068.56
2022-10-11T14:30:26.067Z,101066.09
2022-10-11T14:32:50.475Z,101067.91
2022-10-11T14:35:20.941Z,101079.38
2022-10-11T14:37:47.556Z,101073.38
2022-10-11T14:40:18.633Z,101072.59
2022-10-11T14:42:47.158Z,101070.09
2022-10-11T14:45:13.972Z,101080.13
2022-10-11T14:47:43.107Z,101077.91
2022-10-11T14:50:28.021Z,101081.06
2022-10-11T14:52:55.178Z,101078.84
2022-10-11T14:55:22.054Z,101078.16
2022-10-11T14:57:48.723Z,101068.69
2022-10-11T15:00:20.439Z,101078.31
2022-10-11T15:02:47.252Z,101078.09
2022-10-11T15:05:13.930Z,101047.75
2022-10-11T15:07:41.314Z,101070.13
2022-10-11T15:10:16.930Z,101065.66
2022-10-11T15:12:44.295Z,101064.88
2022-10-11T15:15:14.733Z,101071.53
2022-10-11T15:17:43.390Z,101069.78
2022-10-11T15:20:20.547Z,101054.94
2022-10-11T15:22:47.256Z,101061.97
2022-10-11T15:25:14.031Z,101068.00
2022-10-11T15:27:42.603Z,101064.44
2022-10-11T15:30:16.722Z,101068.84
2022-10-11T15:32:44.571Z,101068.91
2022-10-11T15:35:11.590Z,101065.56
2022-10-11T15:37:38.622Z,101058.88
2022-10-11T15:40:23.589Z,101067.56
2022-10-11T15:42:51.921Z,101052.09
2022-10-11T15:45:19.792Z,101062.59
2022-10-11T15:47:47.627Z,101066.94
2022-10-11T15:50:33.759Z,101067.03
2022-10-11T15:53:09.863Z,101018.50
2022-10-11T15:55:40.640Z,101060.91
2022-10-11T15:58:17.341Z,101052.13
2022-10-11T16:00:45.837Z,101057.38
2022-10-11T16:03:14.523Z,101056.47
2022-10-11T16:05:42.010Z,101052.97
2022-10-11T16:08:09.801Z,101043.59
2022-10-11T16:10:37.210Z,101052.25
2022-10-11T16:13:05.391Z,101061.09
2022-10-11T16:15:32.059Z,101048.94
2022-10-11T16:17:58.687Z,101055.03
2022-10-11T16:20:25.913Z,101050.06
2022-10-11T16:22:54.435Z,101040.59
2022-10-11T16:25:21.983Z,101040.81
2022-10-11T16:27:49.604Z,101046.28
2022-10-11T16:30:18.692Z,101047.34
2022-10-11T16:32:45.634Z,101048.56
2022-10-11T16:35:14.725Z,101020.97
2022-10-11T16:37:41.833Z,101040.09
2022-10-11T16:40:11.105Z,101043.00
2022-10-11T16:42:39.208Z,101049.28
2022-10-11T16:45:07.029Z,101024.22
2022-10-11T16:47:33.811Z,101028.72
2022-10-11T16:50:01.358Z,101035.69
2022-10-11T16:52:28.096Z,101036.69
2022-10-11T16:54:54.645Z,101023.59
2022-10-11T16:57:21.370Z,101023.59
2022-10-11T16:59:48.682Z,101018.38
2022-10-11T17:02:21.655Z,101030.38
2022-10-11T17:04:51.736Z,101026.75
2022-10-11T17:07:19.722Z,101022.31
2022-10-11T17:09:48.661Z,101017.00
2022-10-11T17:12:19.472Z,101028.31
2022-10-11T17:14:46.529Z,101019.50
2022-10-11T17:17:13.583Z,101022.94
2022-10-11T17:19:45.002Z,101028.03
2022-10-11T17:22:14.193Z,101030.66
2022-10-11T17:24:40.873Z,101028.03
2022-10-11T17:27:07.823Z,101014.09
2022-10-11T17:29:34.653Z,101028.03
2022-10-11T17:32:01.753Z,101018.50
2022-10-11T17:34:28.598Z,101021.94
2022-10-11T17:36:55.428Z,101021.94
2022-10-11T17:39:23.660Z,101021.06
2022-10-11T17:41:50.511Z,100983.81
2022-10-11T17:44:18.972Z,101020.19
2022-10-11T17:46:46.213Z,101009.78
2022-10-11T17:49:16.571Z,101007.13
2022-10-11T17:51:46.178Z,101015.97
2022-10-11T17:54:13.195Z,101012.47
2022-10-11T17:56:43.021Z,101014.97
2022-10-11T17:59:16.123Z,100967.28
2022-10-11T18:01:43.302Z,101010.78
2022-10-11T18:04:19.168Z,101015.97
2022-10-11T18:06:47.455Z,101009.84
2022-10-11T18:09:16.414Z,101015.97
2022-10-11T18:11:43.134Z,101015.88
2022-10-11T18:14:09.824Z,101012.38
2022-10-11T18:16:37.811Z,101006.34
2022-10-11T18:19:06.645Z,101008.84
2022-10-11T18:21:35.090Z,101001.03
2022-10-11T18:24:05.580Z,100988.00
2022-10-11T18:26:32.431Z,100996.63
2022-10-11T18:28:59.878Z,101007.94
2022-10-11T18:31:29.894Z,100998.25
2022-10-11T18:33:56.925Z,100999.13
2022-10-11T18:36:27.943Z,100995.66
2022-10-11T18:38:58.369Z,100986.91
2022-10-11T18:41:30.912Z,100991.25
2022-10-11T18:44:03.245Z,100988.66
2022-10-11T18:46:30.682Z,100986.03
2022-10-11T18:48:59.928Z,100994.84
2022-10-11T18:51:37.893Z,100987.00
2022-10-11T18:54:06.859Z,100983.38
2022-10-11T18:56:36.509Z,100986.81
2022-10-11T18:59:04.371Z,100984.19
2022-10-11T19:01:35.260Z,100974.56
2022-10-11T19:04:03.327Z,100975.50
2022-10-11T19:06:39.466Z,100978.00
2022-10-11T19:09:07.117Z,100975.50
2022-10-11T19:11:34.159Z,100963.47
2022-10-11T19:14:14.698Z,100966.19
2022-10-11T19:16:45.564Z,100964.59
2022-10-11T19:19:13.344Z,100960.16
2022-10-11T19:21:41.007Z,100959.22
2022-10-11T19:24:08.343Z,100921.91
2022-10-11T19:26:38.299Z,100952.34
2022-10-11T19:29:19.821Z,100943.53
2022-10-11T19:31:52.644Z,100949.81
2022-10-11T19:34:19.904Z,100916.97
2022-10-11T19:36:48.736Z,100940.44
2022-10-11T19:39:17.091Z,100950.03
2022-10-11T19:41:45.377Z,100952.81
2022-10-11T19:44:15.519Z,100935.50
2022-10-11T19:47:02.746Z,100942.44
2022-10-11T19:49:29.307Z,100939.94
2022-10-11T19:51:55.977Z,100944.06
2022-10-11T19:54:22.759Z,100931.00
2022-10-11T19:56:50.068Z,100897.19
2022-10-11T19:59:16.837Z,100919.69
2022-10-11T20:01:46.823Z,100917.84
2022-10-11T20:04:39.619Z,100892.69
2022-10-11T20:07:04.784Z,100927.22
2022-10-11T20:09:32.211Z,100924.69
2022-10-11T20:11:58.989Z,100917.84
2022-10-11T20:14:25.748Z,100925.72
2022-10-11T20:16:55.638Z,100915.13
2022-10-11T20:19:27.791Z,100918.66
2022-10-11T20:21:56.951Z,100922.94
2022-10-11T20:24:23.550Z,100920.44
2022-10-11T20:26:50.113Z,100911.59
2022-10-11T20:29:17.722Z,100924.81
2022-10-11T20:31:44.320Z,100916.09
2022-10-11T20:34:11.368Z,100909.34
2022-10-11T20:36:39.135Z,100912.84
2022-10-11T20:39:06.661Z,100912.72
2022-10-11T20:41:37.300Z,100909.19
2022-10-11T20:44:05.133Z,100908.34
2022-10-11T20:46:37.600Z,100903.06
2022-10-11T20:49:10.486Z,100904.91
2022-10-11T20:51:38.873Z,100906.69
2022-10-11T20:54:05.824Z,100901.50
2022-10-11T20:56:33.849Z,100889.34
2022-10-11T20:59:00.874Z,100898.06
2022-10-11T21:01:30.310Z,100903.25
2022-10-11T21:03:58.326Z,100900.63
2022-10-11T21:06:25.559Z,100903.25
2022-10-11T21:08:54.850Z,100848.72
2022-10-11T21:11:21.474Z,100895.44
2022-10-11T21:13:48.020Z,100890.19
2022-10-11T21:16:16.016Z,100897.13
2022-10-11T21:18:43.177Z,100884.84
2022-10-11T21:21:12.742Z,100870.22
2022-10-11T21:23:40.093Z,100886.00
2022-10-11T21:26:11.209Z,100888.59
2022-10-11T21:28:38.695Z,100887.03
2022-10-11T21:31:11.392Z,100882.84
2022-10-11T21:33:38.967Z,100883.75
2022-10-11T21:36:10.796Z,100880.44
2022-10-11T21:38:37.806Z,100851.94
2022-10-11T21:41:17.067Z,100874.44
2022-10-11T21:43:45.000Z,100870.16
2022-10-11T21:46:15.333Z,100872.88
2022-10-11T21:48:42.238Z,100784.69
2022-10-11T21:51:19.724Z,100871.22
2022-10-11T21:53:46.333Z,100835.72
2022-10-11T21:56:12.922Z,100856.53
2022-10-11T21:58:39.610Z,100862.59
2022-10-11T22:01:06.340Z,100864.38
2022-10-11T22:03:33.076Z,100860.00
2022-10-11T22:06:03.464Z,100855.72
2022-10-11T22:08:30.367Z,100856.75
2022-10-11T22:10:58.824Z,100851.53
2022-10-11T22:13:27.274Z,100861.78
2022-10-11T22:15:57.050Z,100851.44
2022-10-11T22:18:24.542Z,100869.75
2022-10-11T22:20:51.503Z,100849.69
2022-10-11T22:23:19.916Z,100858.31
2022-10-11T22:25:46.534Z,100867.97
2022-10-11T22:28:13.387Z,100860.16
2022-10-11T22:30:40.070Z,100841.97
2022-10-11T22:33:06.630Z,100848.78
2022-10-11T22:35:37.388Z,100845.41
2022-10-11T22:38:07.331Z,100855.84
2022-10-11T22:40:35.416Z,100854.16
2022-10-11T22:43:02.072Z,100854.22
2022-10-11T22:45:29.428Z,100849.03
2022-10-11T22:47:56.021Z,100852.69
2022-10-11T22:50:22.689Z,100841.50
2022-10-11T22:52:49.352Z,100833.78
2022-10-11T22:55:19.899Z,100835.63
2022-10-11T22:57:46.911Z,100813.13
2022-10-11T23:00:13.836Z,100837.50
2022-10-11T23:02:40.550Z,100843.69
2022-10-11T23:05:07.453Z,100836.03
2022-10-11T23:07:34.241Z,100833.41
2022-10-11T23:10:01.282Z,100834.41
2022-10-11T23:12:27.882Z,100840.50
2022-10-11T23:14:55.377Z,100837.91
2022-10-11T23:17:22.080Z,100825.03
2022-10-11T23:19:48.681Z,100834.47
2022-10-11T23:22:16.861Z,100831.88
2022-10-11T23:24:43.434Z,100826.69
2022-10-11T23:27:10.639Z,100831.09
2022-10-11T23:29:41.855Z,100825.94
2022-10-11T23:32:09.619Z,100805.16
2022-10-11T23:34:37.031Z,100823.31
2022-10-11T23:37:04.638Z,100825.94
2022-10-11T23:39:31.274Z,100838.22
2022-10-11T23:41:57.978Z,100818.94
2022-10-11T23:44:25.404Z,100819.78
2022-10-11T23:46:52.187Z,100823.25
2022-10-11T23:49:18.762Z,100821.50
2022-10-11T23:51:46.153Z,100812.69
2022-10-11T23:54:12.739Z,100804.03
2022-10-11T23:56:39.312Z,100802.22
2022-10-11T23:59:06.006Z,100799.69
